Time,TemperatureF,DewpointF,PressureIn,WindDirection,WindDirectionDegrees,WindSpeedMPH,WindSpeedGustMPH,Humidity,HourlyPrecipIn,Conditions,Clouds,dailyrainin,SoftwareType,DateUTC
2013-04-24 00:01:00,51.1,41.7,30.01,SE,141,4.0,4.0,70,0.00,,,0.00,Wunderground v.1.15,2013-04-24 04:01:00,
2013-04-24 00:03:00,51.1,41.7,30.01,SE,146,4.0,4.0,70,0.00,,,0.00,Wunderground v.1.15,2013-04-24 04:03:00,
2013-04-24 00:06:00,51.0,41.6,30.01,ESE,105,5.0,8.0,70,0.00,,,0.00,Wunderground v.1.15,2013-04-24 04:06:00,
2013-04-24 00:11:00,51.0,41.9,30.01,East,79,4.0,4.0,71,0.00,,,0.00,Wunderground v.1.15,2013-04-24 04:11:00,
2013-04-24 00:16:00,50.8,41.7,30.01,SE,131,4.0,6.0,71,0.00,,,0.00,Wunderground v.1.15,2013-04-24 04:16:00,
2013-04-24 00:18:00,50.8,41.7,30.01,East,91,3.0,6.0,71,0.00,,,0.00,Wunderground v.1.15,2013-04-24 04:18:00,
2013-04-24 00:23:00,50.7,42.0,30.01,SE,146,4.0,6.0,72,0.00,,,0.00,Wunderground v.1.15,2013-04-24 04:23:00,
2013-04-24 00:29:00,50.7,42.0,30.00,SE,125,5.0,8.0,72,0.00,,,0.00,Wunderground v.1.15,2013-04-24 04:29:00,
2013-04-24 00:34:00,50.6,41.9,30.00,ESE,119,6.0,7.0,72,0.00,,,0.00,Wunderground v.1.15,2013-04-24 04:34:00,
2013-04-24 00:39:00,50.5,41.8,29.99,SE,125,5.0,7.0,72,0.00,,,0.00,Wunderground v.1.15,2013-04-24 04:39:00,
2013-04-24 00:45:00,50.5,41.8,30.00,East,82,4.0,8.0,72,0.00,,,0.00,Wunderground v.1.15,2013-04-24 04:45:00,
2013-04-24 00:51:00,50.3,42.0,29.99,East,101,4.0,5.0,73,0.00,,,0.00,Wunderground v.1.15,2013-04-24 04:51:00,
2013-04-24 00:57:00,50.2,41.9,29.99,East,98,4.0,7.0,73,0.00,,,0.00,Wunderground v.1.15,2013-04-24 04:57:00,
2013-04-24 01:02:00,50.2,41.9,29.99,East,86,4.0,6.0,73,0.00,,,0.00,Wunderground v.1.15,2013-04-24 05:02:00,
2013-04-24 01:07:00,50.1,41.8,29.98,SE,126,4.0,8.0,73,0.00,,,0.00,Wunderground v.1.15,2013-04-24 05:07:00,
2013-04-24 01:12:00,50.1,42.1,29.98,SE,126,4.0,8.0,74,0.00,,,0.00,Wunderground v.1.15,2013-04-24 05:12:00,
2013-04-24 01:18:00,50.0,42.0,29.98,East,101,6.0,9.0,74,0.00,,,0.00,Wunderground v.1.15,2013-04-24 05:18:00,
2013-04-24 01:24:00,50.0,42.0,29.98,SE,125,7.0,9.0,74,0.00,,,0.00,Wunderground v.1.15,2013-04-24 05:24:00,
2013-04-24 01:29:00,50.0,42.0,29.98,SE,126,7.0,9.0,74,0.00,,,0.00,Wunderground v.1.15,2013-04-24 05:29:00,
2013-04-24 01:34:00,50.0,42.0,29.98,SE,126,7.0,12.0,74,0.00,,,0.00,Wunderground v.1.15,2013-04-24 05:34:00,
2013-04-24 01:40:00,49.9,41.9,29.98,ENE,72,6.0,6.0,74,0.00,,,0.00,Wunderground v.1.15,2013-04-24 05:40:00,
2013-04-24 01:46:00,49.8,41.8,29.98,SSE,149,4.0,6.0,74,0.00,,,0.00,Wunderground v.1.15,2013-04-24 05:46:00,
2013-04-24 01:52:00,49.8,41.8,29.98,East,93,3.0,9.0,74,0.00,,,0.00,Wunderground v.1.15,2013-04-24 05:52:00,
2013-04-24 01:57:00,49.8,41.8,29.98,SW,214,3.0,9.0,74,0.00,,,0.00,Wunderground v.1.15,2013-04-24 05:57:00,
2013-04-24 02:03:00,49.8,41.5,29.97,SE,127,3.0,4.0,73,0.00,,,0.00,Wunderground v.1.15,2013-04-24 06:03:00,
2013-04-24 02:08:00,49.7,41.7,29.97,East,95,2.0,4.0,74,0.00,,,0.00,Wunderground v.1.15,2013-04-24 06:08:00,
2013-04-24 02:13:00,49.6,41.7,29.97,ESE,116,1.0,2.0,74,0.00,,,0.00,Wunderground v.1.15,2013-04-24 06:13:00,
2013-04-24 02:19:00,49.5,41.6,29.97,East,86,2.0,5.0,74,0.00,,,0.00,Wunderground v.1.15,2013-04-24 06:19:00,
2013-04-24 02:25:00,49.4,41.5,29.96,ESE,115,2.0,2.0,74,0.00,,,0.00,Wunderground v.1.15,2013-04-24 06:25:00,
2013-04-24 02:30:00,49.3,41.7,29.96,ESE,115,2.0,2.0,75,0.00,,,0.00,Wunderground v.1.15,2013-04-24 06:30:00,
2013-04-24 02:35:00,49.3,41.4,29.96,ESE,114,3.0,7.0,74,0.00,,,0.00,Wunderground v.1.15,2013-04-24 06:35:00,
2013-04-24 02:41:00,49.2,41.3,29.96,ESE,120,2.0,2.0,74,0.00,,,0.00,Wunderground v.1.15,2013-04-24 06:41:00,
2013-04-24 02:46:00,48.9,41.3,29.95,ENE,70,1.0,2.0,75,0.00,,,0.00,Wunderground v.1.15,2013-04-24 06:46:00,
2013-04-24 02:51:00,48.7,41.1,29.96,ESE,108,1.0,1.0,75,0.00,,,0.00,Wunderground v.1.15,2013-04-24 06:51:00,
2013-04-24 02:57:00,48.5,40.9,29.96,East,94,0.0,1.0,75,0.00,,,0.00,Wunderground v.1.15,2013-04-24 06:57:00,
2013-04-24 03:03:00,48.0,40.8,29.96,ESE,102,0.0,2.0,76,0.00,,,0.00,Wunderground v.1.15,2013-04-24 07:03:00,
2013-04-24 03:08:00,47.9,40.7,29.96,East,86,0.0,2.0,76,0.00,,,0.00,Wunderground v.1.15,2013-04-24 07:08:00,
2013-04-24 03:14:00,48.0,40.8,29.96,ESE,113,1.0,7.0,76,0.00,,,0.00,Wunderground v.1.15,2013-04-24 07:14:00,
2013-04-24 03:19:00,48.3,41.1,29.96,East,90,2.0,7.0,76,0.00,,,0.00,Wunderground v.1.15,2013-04-24 07:19:00,
2013-04-24 03:24:00,48.4,41.2,29.96,ESE,106,2.0,3.0,76,0.00,,,0.00,Wunderground v.1.15,2013-04-24 07:24:00,
2013-04-24 03:30:00,48.1,40.9,29.95,SE,129,1.0,2.0,76,0.00,,,0.00,Wunderground v.1.15,2013-04-24 07:30:00,
2013-04-24 03:36:00,48.0,40.8,29.94,ESE,117,2.0,3.0,76,0.00,,,0.00,Wunderground v.1.15,2013-04-24 07:36:00,
2013-04-24 03:42:00,48.0,40.8,29.95,ESE,112,3.0,3.0,76,0.00,,,0.00,Wunderground v.1.15,2013-04-24 07:42:00,
2013-04-24 03:47:00,47.8,40.6,29.95,East,101,1.0,3.0,76,0.00,,,0.00,Wunderground v.1.15,2013-04-24 07:47:00,
2013-04-24 03:52:00,47.7,40.8,29.94,SE,125,1.0,2.0,77,0.00,,,0.00,Wunderground v.1.15,2013-04-24 07:52:00,
2013-04-24 03:58:00,47.9,41.0,29.94,ESE,114,2.0,4.0,77,0.00,,,0.00,Wunderground v.1.15,2013-04-24 07:58:00,
2013-04-24 04:04:00,47.9,41.0,29.94,ESE,109,3.0,3.0,77,0.00,,,0.00,Wunderground v.1.15,2013-04-24 08:04:00,
2013-04-24 04:09:00,47.9,41.0,29.94,East,82,2.0,3.0,77,0.00,,,0.00,Wunderground v.1.15,2013-04-24 08:09:00,
2013-04-24 04:15:00,47.7,40.8,29.94,ENE,78,1.0,2.0,77,0.00,,,0.00,Wunderground v.1.15,2013-04-24 08:15:00,
2013-04-24 04:20:00,47.4,40.6,29.94,East,84,0.0,2.0,77,0.00,,,0.00,Wunderground v.1.15,2013-04-24 08:20:00,
2013-04-24 04:25:00,47.3,40.8,29.94,East,84,0.0,2.0,78,0.00,,,0.00,Wunderground v.1.15,2013-04-24 08:25:00,
2013-04-24 04:30:00,47.2,40.7,29.94,ESE,122,1.0,1.0,78,0.00,,,0.00,Wunderground v.1.15,2013-04-24 08:30:00,
2013-04-24 04:36:00,47.0,40.5,29.94,ESE,114,1.0,2.0,78,0.00,,,0.00,Wunderground v.1.15,2013-04-24 08:36:00,
2013-04-24 04:41:00,46.7,40.2,29.94,ESE,115,0.0,1.0,78,0.00,,,0.00,Wunderground v.1.15,2013-04-24 08:41:00,
2013-04-24 04:46:00,46.7,40.5,29.94,ESE,113,1.0,1.0,79,0.00,,,0.00,Wunderground v.1.15,2013-04-24 08:46:00,
2013-04-24 04:51:00,46.7,40.5,29.93,ESE,103,1.0,3.0,79,0.00,,,0.00,Wunderground v.1.15,2013-04-24 08:51:00,
2013-04-24 04:56:00,46.7,40.5,29.93,East,91,1.0,3.0,79,0.00,,,0.00,Wunderground v.1.15,2013-04-24 08:56:00,
2013-04-24 05:02:00,46.5,40.3,29.93,SE,125,1.0,1.0,79,0.00,,,0.00,Wunderground v.1.15,2013-04-24 09:02:00,
2013-04-24 05:07:00,46.6,40.4,29.93,ESE,115,1.0,3.0,79,0.00,,,0.00,Wunderground v.1.15,2013-04-24 09:07:00,
2013-04-24 05:13:00,46.9,40.7,29.93,ESE,104,2.0,3.0,79,0.00,,,0.00,Wunderground v.1.15,2013-04-24 09:13:00,
2013-04-24 05:18:00,46.8,40.3,29.93,East,84,1.0,3.0,78,0.00,,,0.00,Wunderground v.1.15,2013-04-24 09:18:00,
2013-04-24 05:23:00,47.0,40.8,29.93,East,100,1.0,3.0,79,0.00,,,0.00,Wunderground v.1.15,2013-04-24 09:23:00,
2013-04-24 05:28:00,47.2,40.7,29.93,ESE,120,2.0,3.0,78,0.00,,,0.00,Wunderground v.1.15,2013-04-24 09:28:00,
2013-04-24 05:34:00,47.1,40.6,29.93,ENE,73,1.0,2.0,78,0.00,,,0.00,Wunderground v.1.15,2013-04-24 09:34:00,
2013-04-24 05:39:00,47.2,40.4,29.93,ESE,115,1.0,2.0,77,0.00,,,0.00,Wunderground v.1.15,2013-04-24 09:39:00,
2013-04-24 05:44:00,47.1,40.3,29.93,ESE,120,1.0,3.0,77,0.00,,,0.00,Wunderground v.1.15,2013-04-24 09:44:00,
2013-04-24 05:49:00,47.3,40.5,29.93,East,96,2.0,3.0,77,0.00,,,0.00,Wunderground v.1.15,2013-04-24 09:49:00,
2013-04-24 05:55:00,47.4,40.6,29.92,ESE,122,2.0,4.0,77,0.00,,,0.00,Wunderground v.1.15,2013-04-24 09:55:00,
2013-04-24 06:00:00,47.5,40.3,29.92,ESE,105,3.0,3.0,76,0.00,,,0.00,Wunderground v.1.15,2013-04-24 10:00:00,
2013-04-24 06:06:00,47.8,40.6,29.93,ESE,105,3.0,4.0,76,0.00,,,0.00,Wunderground v.1.15,2013-04-24 10:06:00,
2013-04-24 06:12:00,47.9,40.4,29.93,SE,129,4.0,4.0,75,0.00,,,0.00,Wunderground v.1.15,2013-04-24 10:12:00,
2013-04-24 06:17:00,48.1,40.5,29.93,East,79,4.0,6.0,75,0.00,,,0.00,Wunderground v.1.15,2013-04-24 10:17:00,
2013-04-24 06:23:00,48.0,40.5,29.92,East,101,3.0,4.0,75,0.00,,,0.00,Wunderground v.1.15,2013-04-24 10:23:00,
2013-04-24 06:29:00,47.9,40.4,29.92,East,100,1.0,4.0,75,0.00,,,0.00,Wunderground v.1.15,2013-04-24 10:29:00,
2013-04-24 06:34:00,47.9,40.7,29.92,ESE,113,2.0,3.0,76,0.00,,,0.00,Wunderground v.1.15,2013-04-24 10:34:00,
2013-04-24 06:40:00,48.1,40.5,29.92,ESE,118,3.0,3.0,75,0.00,,,0.00,Wunderground v.1.15,2013-04-24 10:40:00,
2013-04-24 06:45:00,48.4,40.8,29.92,ESE,123,2.0,3.0,75,0.00,,,0.00,Wunderground v.1.15,2013-04-24 10:45:00,
2013-04-24 06:51:00,48.7,40.8,29.92,East,82,2.0,2.0,74,0.00,,,0.00,Wunderground v.1.15,2013-04-24 10:51:00,
2013-04-24 06:56:00,49.0,41.1,29.92,ENE,71,3.0,4.0,74,0.00,,,0.00,Wunderground v.1.15,2013-04-24 10:56:00,
2013-04-24 07:01:00,49.2,40.9,29.91,ESE,105,3.0,3.0,73,0.00,,,0.00,Wunderground v.1.15,2013-04-24 11:01:00,
2013-04-24 07:07:00,49.4,41.1,29.91,East,98,3.0,4.0,73,0.00,,,0.00,Wunderground v.1.15,2013-04-24 11:07:00,
2013-04-24 07:13:00,49.7,41.0,29.91,SE,135,4.0,5.0,72,0.00,,,0.00,Wunderground v.1.15,2013-04-24 11:13:00,
2013-04-24 07:19:00,49.9,41.2,29.90,ESE,117,3.0,5.0,72,0.00,,,0.00,Wunderground v.1.15,2013-04-24 11:19:00,
2013-04-24 07:24:00,50.2,41.2,29.90,ESE,117,2.0,3.0,71,0.00,,,0.00,Wunderground v.1.15,2013-04-24 11:24:00,
2013-04-24 07:29:00,50.4,41.3,29.90,SE,129,3.0,6.0,71,0.00,,,0.00,Wunderground v.1.15,2013-04-24 11:29:00,
2013-04-24 07:34:00,50.5,41.1,29.90,ESE,117,2.0,4.0,70,0.00,,,0.00,Wunderground v.1.15,2013-04-24 11:34:00,
2013-04-24 07:40:00,50.6,41.2,29.90,East,91,2.0,2.0,70,0.00,,,0.00,Wunderground v.1.15,2013-04-24 11:40:00,
2013-04-24 07:45:00,50.8,41.4,29.90,ESE,103,2.0,3.0,70,0.00,,,0.00,Wunderground v.1.15,2013-04-24 11:45:00,
2013-04-24 07:51:00,51.0,41.6,29.90,ESE,105,2.0,2.0,70,0.00,,,0.00,Wunderground v.1.15,2013-04-24 11:51:00,
2013-04-24 07:57:00,51.2,41.4,29.90,East,96,2.0,4.0,69,0.00,,,0.00,Wunderground v.1.15,2013-04-24 11:57:00,
2013-04-24 08:02:00,51.4,41.2,29.90,ESE,123,2.0,3.0,68,0.00,,,0.00,Wunderground v.1.15,2013-04-24 12:02:00,
2013-04-24 08:08:00,51.7,41.5,29.89,ESE,105,2.0,3.0,68,0.00,,,0.00,Wunderground v.1.15,2013-04-24 12:08:00,
2013-04-24 08:13:00,52.0,41.8,29.89,East,98,2.0,2.0,68,0.00,,,0.00,Wunderground v.1.15,2013-04-24 12:13:00,
2013-04-24 08:19:00,52.3,41.7,29.89,SE,126,2.0,4.0,67,0.00,,,0.00,Wunderground v.1.15,2013-04-24 12:19:00,
2013-04-24 08:25:00,52.6,41.9,29.89,East,79,3.0,3.0,67,0.00,,,0.00,Wunderground v.1.15,2013-04-24 12:25:00,
2013-04-24 08:30:00,52.9,42.2,29.88,East,79,2.0,6.0,67,0.00,,,0.00,Wunderground v.1.15,2013-04-24 12:30:00,
2013-04-24 08:36:00,53.2,42.1,29.88,East,99,3.0,6.0,66,0.00,,,0.00,Wunderground v.1.15,2013-04-24 12:36:00,
2013-04-24 08:41:00,53.3,41.8,29.88,ESE,119,2.0,3.0,65,0.00,,,0.00,Wunderground v.1.15,2013-04-24 12:41:00,
2013-04-24 08:47:00,53.6,42.1,29.87,SE,145,3.0,3.0,65,0.00,,,0.00,Wunderground v.1.15,2013-04-24 12:47:00,
2013-04-24 08:52:00,53.9,42.4,29.87,ESE,120,2.0,4.0,65,0.00,,,0.00,Wunderground v.1.15,2013-04-24 12:52:00,
2013-04-24 08:58:00,54.2,42.3,29.88,ESE,120,2.0,4.0,64,0.00,,,0.00,Wunderground v.1.15,2013-04-24 12:58:00,
2013-04-24 09:03:00,54.6,42.7,29.88,SE,143,2.0,2.0,64,0.00,,,0.00,Wunderground v.1.15,2013-04-24 13:03:00,
2013-04-24 09:09:00,54.9,42.5,29.88,ESE,122,2.0,2.0,63,0.00,,,0.00,Wunderground v.1.15,2013-04-24 13:09:00,
2013-04-24 09:14:00,55.1,42.7,29.89,SE,127,2.0,2.0,63,0.00,,,0.00,Wunderground v.1.15,2013-04-24 13:14:00,
2013-04-24 09:20:00,55.4,43.0,29.89,WSW,243,1.0,3.0,63,0.00,,,0.00,Wunderground v.1.15,2013-04-24 13:20:00,
2013-04-24 09:25:00,55.5,42.7,29.88,ENE,75,1.0,3.0,62,0.00,,,0.00,Wunderground v.1.15,2013-04-24 13:25:00,
2013-04-24 09:30:00,55.8,43.0,29.88,East,94,1.0,3.0,62,0.00,,,0.00,Wunderground v.1.15,2013-04-24 13:30:00,
2013-04-24 09:36:00,56.4,43.1,29.87,ESE,106,1.0,1.0,61,0.00,,,0.00,Wunderground v.1.15,2013-04-24 13:36:00,
2013-04-24 09:41:00,57.1,43.8,29.87,ESE,107,1.0,3.0,61,0.00,,,0.00,Wunderground v.1.15,2013-04-24 13:41:00,
2013-04-24 09:47:00,57.6,43.8,29.87,SE,126,2.0,3.0,60,0.00,,,0.00,Wunderground v.1.15,2013-04-24 13:47:00,
2013-04-24 09:53:00,58.0,43.3,29.87,SE,128,2.0,2.0,58,0.00,,,0.00,Wunderground v.1.15,2013-04-24 13:53:00,
2013-04-24 09:58:00,58.0,43.7,29.87,West,274,2.0,4.0,59,0.00,,,0.00,Wunderground v.1.15,2013-04-24 13:58:00,
2013-04-24 10:03:00,58.0,43.3,29.86,SE,136,2.0,3.0,58,0.00,,,0.00,Wunderground v.1.15,2013-04-24 14:03:00,
2013-04-24 10:09:00,58.4,43.7,29.86,SE,145,2.0,3.0,58,0.00,,,0.00,Wunderground v.1.15,2013-04-24 14:09:00,
2013-04-24 10:15:00,58.7,44.0,29.86,SE,133,1.0,3.0,58,0.00,,,0.00,Wunderground v.1.15,2013-04-24 14:15:00,
2013-04-24 10:20:00,59.0,43.8,29.86,East,83,2.0,3.0,57,0.00,,,0.00,Wunderground v.1.15,2013-04-24 14:20:00,
2013-04-24 10:26:00,59.2,43.5,29.85,SW,215,4.0,8.0,56,0.00,,,0.00,Wunderground v.1.15,2013-04-24 14:26:00,
2013-04-24 10:31:00,59.9,44.6,29.85,ESE,123,4.0,4.0,57,0.00,,,0.00,Wunderground v.1.15,2013-04-24 14:31:00,
2013-04-24 10:37:00,60.8,44.5,29.85,West,269,3.0,4.0,55,0.00,,,0.00,Wunderground v.1.15,2013-04-24 14:37:00,
2013-04-24 10:42:00,61.6,45.3,29.85,ESE,108,2.0,4.0,55,0.00,,,0.00,Wunderground v.1.15,2013-04-24 14:42:00,
2013-04-24 10:48:00,61.6,45.3,29.84,SSE,154,3.0,6.0,55,0.00,,,0.00,Wunderground v.1.15,2013-04-24 14:48:00,
2013-04-24 10:53:00,61.3,44.5,29.84,West,266,5.0,5.0,54,0.00,,,0.00,Wunderground v.1.15,2013-04-24 14:53:00,
2013-04-24 10:59:00,61.4,45.1,29.84,SE,135,3.0,5.0,55,0.00,,,0.00,Wunderground v.1.15,2013-04-24 14:59:00,
2013-04-24 11:04:00,61.3,44.5,29.83,SE,136,3.0,9.0,54,0.00,,,0.00,Wunderground v.1.15,2013-04-24 15:04:00,
2013-04-24 11:09:00,61.2,44.9,29.83,SE,139,4.0,9.0,55,0.00,,,0.00,Wunderground v.1.15,2013-04-24 15:09:00,
2013-04-24 11:15:00,61.3,45.0,29.82,ESE,120,4.0,8.0,55,0.00,,,0.00,Wunderground v.1.15,2013-04-24 15:15:00,
2013-04-24 11:20:00,61.7,44.9,29.81,SE,124,4.0,7.0,54,0.00,,,0.00,Wunderground v.1.15,2013-04-24 15:20:00,
2013-04-24 11:26:00,62.0,45.6,29.80,ENE,73,4.0,7.0,55,0.00,,,0.00,Wunderground v.1.15,2013-04-24 15:26:00,
2013-04-24 11:31:00,62.0,45.2,29.80,ESE,113,4.0,7.0,54,0.00,,,0.00,Wunderground v.1.15,2013-04-24 15:31:00,
2013-04-24 11:37:00,61.8,45.5,29.79,ESE,114,4.0,9.0,55,0.00,,,0.00,Wunderground v.1.15,2013-04-24 15:37:00,
2013-04-24 11:42:00,62.2,45.8,29.80,SE,129,5.0,5.0,55,0.00,,,0.00,Wunderground v.1.15,2013-04-24 15:42:00,
2013-04-24 11:48:00,62.4,46.0,29.79,South,180,4.0,6.0,55,0.00,,,0.00,Wunderground v.1.15,2013-04-24 15:48:00,
2013-04-24 11:53:00,62.3,45.9,29.78,ESE,113,4.0,5.0,55,0.00,,,0.00,Wunderground v.1.15,2013-04-24 15:53:00,
2013-04-24 11:59:00,62.5,46.1,29.78,SE,129,4.0,5.0,55,0.00,,,0.00,Wunderground v.1.15,2013-04-24 15:59:00,
2013-04-24 12:04:00,63.1,46.7,29.77,ESE,105,3.0,4.0,55,0.00,,,0.00,Wunderground v.1.15,2013-04-24 16:04:00,
2013-04-24 12:09:00,63.9,46.9,29.77,SE,131,3.0,5.0,54,0.00,,,0.00,Wunderground v.1.15,2013-04-24 16:09:00,
2013-04-24 12:15:00,64.4,47.4,29.77,East,96,3.0,6.0,54,0.00,,,0.00,Wunderground v.1.15,2013-04-24 16:15:00,
2013-04-24 12:20:00,64.7,47.2,29.76,East,89,3.0,3.0,53,0.00,,,0.00,Wunderground v.1.15,2013-04-24 16:20:00,
2013-04-24 12:26:00,65.1,47.5,29.76,East,101,2.0,6.0,53,0.00,,,0.00,Wunderground v.1.15,2013-04-24 16:26:00,
2013-04-24 12:32:00,65.7,47.1,29.76,ESE,117,3.0,7.0,51,0.00,,,0.00,Wunderground v.1.15,2013-04-24 16:32:00,
2013-04-24 12:37:00,66.0,48.4,29.76,East,99,3.0,7.0,53,0.00,,,0.00,Wunderground v.1.15,2013-04-24 16:37:00,
2013-04-24 12:43:00,66.5,48.3,29.75,SE,128,3.0,5.0,52,0.00,,,0.00,Wunderground v.1.15,2013-04-24 16:43:00,
2013-04-24 12:48:00,67.1,48.9,29.75,SE,134,4.0,8.0,52,0.00,,,0.00,Wunderground v.1.15,2013-04-24 16:48:00,
2013-04-24 12:54:00,67.5,48.7,29.74,ESE,113,4.0,7.0,51,0.00,,,0.00,Wunderground v.1.15,2013-04-24 16:54:00,
2013-04-24 12:59:00,67.6,48.8,29.74,South,186,5.0,9.0,51,0.00,,,0.00,Wunderground v.1.15,2013-04-24 16:59:00,
2013-04-24 13:04:00,68.0,49.7,29.74,WNW,285,5.0,5.0,52,0.00,,,0.00,Wunderground v.1.15,2013-04-24 17:04:00,
2013-04-24 13:10:00,68.7,49.3,29.74,SW,225,5.0,5.0,50,0.00,,,0.00,Wunderground v.1.15,2013-04-24 17:10:00,
2013-04-24 13:16:00,68.8,50.5,29.73,SSE,162,6.0,9.0,52,0.00,,,0.00,Wunderground v.1.15,2013-04-24 17:16:00,
2013-04-24 13:22:00,69.9,51.5,29.73,SE,142,5.0,6.0,52,0.00,,,0.00,Wunderground v.1.15,2013-04-24 17:22:00,
2013-04-24 13:27:00,70.1,50.6,29.72,SE,138,5.0,6.0,50,0.00,,,0.00,Wunderground v.1.15,2013-04-24 17:27:00,
2013-04-24 13:33:00,70.3,50.8,29.72,SE,127,5.0,8.0,50,0.00,,,0.00,Wunderground v.1.15,2013-04-24 17:33:00,
2013-04-24 13:38:00,70.6,50.5,29.72,ESE,119,4.0,8.0,49,0.00,,,0.00,Wunderground v.1.15,2013-04-24 17:38:00,
2013-04-24 13:44:00,70.6,51.1,29.72,WNW,290,5.0,11.0,50,0.00,,,0.00,Wunderground v.1.15,2013-04-24 17:44:00,
2013-04-24 13:50:00,70.8,51.2,29.71,ESE,117,6.0,9.0,50,0.00,,,0.00,Wunderground v.1.15,2013-04-24 17:50:00,
2013-04-24 13:55:00,71.2,51.1,29.71,ESE,113,5.0,9.0,49,0.00,,,0.00,Wunderground v.1.15,2013-04-24 17:55:00,
2013-04-24 14:01:00,71.2,51.1,29.70,West,274,5.0,10.0,49,0.00,,,0.00,Wunderground v.1.15,2013-04-24 18:01:00,
2013-04-24 14:06:00,71.3,51.7,29.70,WNW,290,6.0,10.0,50,0.00,,,0.00,Wunderground v.1.15,2013-04-24 18:06:00,
2013-04-24 14:12:00,71.3,51.7,29.70,ESE,108,5.0,8.0,50,0.00,,,0.00,Wunderground v.1.15,2013-04-24 18:12:00,
2013-04-24 14:18:00,70.6,51.6,29.70,East,82,5.0,8.0,51,0.00,,,0.00,Wunderground v.1.15,2013-04-24 18:18:00,
2013-04-24 14:23:00,70.4,50.9,29.70,WSW,246,5.0,10.0,50,0.00,,,0.00,Wunderground v.1.15,2013-04-24 18:23:00,
2013-04-24 14:28:00,70.2,51.2,29.70,SSW,211,5.0,10.0,51,0.00,,,0.00,Wunderground v.1.15,2013-04-24 18:28:00,
2013-04-24 14:34:00,70.4,51.4,29.69,SW,220,5.0,7.0,51,0.00,,,0.00,Wunderground v.1.15,2013-04-24 18:34:00,
2013-04-24 14:40:00,70.4,51.4,29.69,SSE,150,4.0,8.0,51,0.00,,,0.00,Wunderground v.1.15,2013-04-24 18:40:00,
2013-04-24 14:45:00,70.5,51.0,29.70,ESE,112,5.0,7.0,50,0.00,,,0.00,Wunderground v.1.15,2013-04-24 18:45:00,
2013-04-24 14:50:00,70.2,51.2,29.69,SE,128,5.0,9.0,51,0.00,,,0.00,Wunderground v.1.15,2013-04-24 18:50:00,
2013-04-24 14:56:00,69.8,50.9,29.70,WNW,283,5.0,6.0,51,0.00,,,0.00,Wunderground v.1.15,2013-04-24 18:56:00,
2013-04-24 15:02:00,69.7,50.8,29.70,ESE,119,6.0,9.0,51,0.00,,,0.00,Wunderground v.1.15,2013-04-24 19:02:00,
2013-04-24 15:07:00,69.6,51.2,29.70,WSW,238,5.0,23.0,52,0.00,,,0.00,Wunderground v.1.15,2013-04-24 19:07:00,
2013-04-24 15:13:00,69.3,50.9,29.70,SW,228,6.0,9.0,52,0.00,,,0.00,Wunderground v.1.15,2013-04-24 19:13:00,
2013-04-24 15:18:00,69.2,51.3,29.70,ENE,64,5.0,10.0,53,0.00,,,0.00,Wunderground v.1.15,2013-04-24 19:18:00,
2013-04-24 15:23:00,68.9,51.1,29.70,SE,146,5.0,7.0,53,0.00,,,0.00,Wunderground v.1.15,2013-04-24 19:23:00,
2013-04-24 15:29:00,68.5,51.7,29.70,West,280,5.0,7.0,55,0.00,,,0.00,Wunderground v.1.15,2013-04-24 19:29:00,
2013-04-24 15:34:00,68.1,51.3,29.69,SSW,192,5.0,6.0,55,0.00,,,0.00,Wunderground v.1.15,2013-04-24 19:34:00,
2013-04-24 15:40:00,67.9,51.1,29.69,ESE,122,5.0,9.0,55,0.00,,,0.00,Wunderground v.1.15,2013-04-24 19:40:00,
2013-04-24 15:46:00,67.9,51.1,29.67,SSE,160,5.0,9.0,55,0.00,,,0.00,Wunderground v.1.15,2013-04-24 19:46:00,
2013-04-24 15:51:00,67.9,51.1,29.67,SE,129,5.0,11.0,55,0.00,,,0.00,Wunderground v.1.15,2013-04-24 19:51:00,
2013-04-24 15:57:00,68.0,50.7,29.67,SSE,152,6.0,11.0,54,0.00,,,0.00,Wunderground v.1.15,2013-04-24 19:57:00,
2013-04-24 16:02:00,68.0,50.7,29.67,ESE,103,5.0,12.0,54,0.00,,,0.00,Wunderground v.1.15,2013-04-24 20:02:00,
2013-04-24 16:07:00,68.0,50.7,29.67,SE,141,5.0,12.0,54,0.00,,,0.00,Wunderground v.1.15,2013-04-24 20:07:00,
2013-04-24 16:13:00,67.9,51.1,29.67,South,170,4.0,10.0,55,0.00,,,0.00,Wunderground v.1.15,2013-04-24 20:13:00,
2013-04-24 16:19:00,67.8,51.0,29.67,SW,215,5.0,10.0,55,0.00,,,0.00,Wunderground v.1.15,2013-04-24 20:19:00,
2013-04-24 16:25:00,67.8,51.5,29.67,ESE,114,5.0,7.0,56,0.00,,,0.00,Wunderground v.1.15,2013-04-24 20:25:00,
2013-04-24 16:31:00,67.8,52.0,29.67,ESE,106,5.0,5.0,57,0.00,,,0.00,Wunderground v.1.15,2013-04-24 20:31:00,
2013-04-24 16:36:00,67.9,52.1,29.67,SE,143,5.0,8.0,57,0.00,,,0.00,Wunderground v.1.15,2013-04-24 20:36:00,
2013-04-24 16:41:00,68.0,52.2,29.67,SW,228,4.0,4.0,57,0.00,,,0.00,Wunderground v.1.15,2013-04-24 20:41:00,
2013-04-24 16:47:00,68.2,52.4,29.67,SE,136,4.0,6.0,57,0.00,,,0.00,Wunderground v.1.15,2013-04-24 20:47:00,
2013-04-24 16:53:00,68.3,52.5,29.67,SE,128,5.0,6.0,57,0.00,,,0.00,Wunderground v.1.15,2013-04-24 20:53:00,
2013-04-24 16:58:00,68.2,52.9,29.67,West,273,4.0,6.0,58,0.00,,,0.00,Wunderground v.1.15,2013-04-24 20:58:00,
2013-04-24 17:03:00,68.2,52.4,29.66,West,262,5.0,11.0,57,0.00,,,0.00,Wunderground v.1.15,2013-04-24 21:03:00,
2013-04-24 17:09:00,68.1,52.8,29.66,WSW,252,8.0,12.0,58,0.00,,,0.00,Wunderground v.1.15,2013-04-24 21:09:00,
2013-04-24 17:15:00,67.7,52.9,29.65,WSW,249,8.0,11.0,59,0.00,,,0.00,Wunderground v.1.15,2013-04-24 21:15:00,
2013-04-24 17:20:00,67.6,52.8,29.65,SE,129,6.0,6.0,59,0.00,,,0.00,Wunderground v.1.15,2013-04-24 21:20:00,
2013-04-24 17:26:00,67.6,52.8,29.64,SSW,208,4.0,6.0,59,0.00,,,0.00,Wunderground v.1.15,2013-04-24 21:26:00,
2013-04-24 17:31:00,67.5,52.2,29.64,WNW,284,4.0,15.0,58,0.00,,,0.00,Wunderground v.1.15,2013-04-24 21:31:00,
2013-04-24 17:36:00,67.5,52.2,29.64,SSW,212,7.0,15.0,58,0.00,,,0.00,Wunderground v.1.15,2013-04-24 21:36:00,
2013-04-24 17:41:00,67.5,51.7,29.63,SW,227,10.0,24.0,57,0.00,,,0.00,Wunderground v.1.15,2013-04-24 21:41:00,
2013-04-24 17:47:00,67.5,52.2,29.63,NNW,333,10.0,26.0,58,0.00,,,0.00,Wunderground v.1.15,2013-04-24 21:47:00,
2013-04-24 17:52:00,67.4,52.1,29.63,West,260,10.0,12.0,58,0.00,,,0.00,Wunderground v.1.15,2013-04-24 21:52:00,
2013-04-24 17:58:00,67.4,51.6,29.62,WNW,297,11.0,20.0,57,0.00,,,0.00,Wunderground v.1.15,2013-04-24 21:58:00,
2013-04-24 18:04:00,67.4,52.1,29.61,West,278,10.0,11.0,58,0.00,,,0.00,Wunderground v.1.15,2013-04-24 22:04:00,
2013-04-24 18:09:00,67.4,51.6,29.61,WSW,255,11.0,13.0,57,0.00,,,0.00,Wunderground v.1.15,2013-04-24 22:09:00,
2013-04-24 18:15:00,66.9,53.0,29.62,West,281,11.0,33.0,61,0.00,,,0.00,Wunderground v.1.15,2013-04-24 22:15:00,
2013-04-24 18:21:00,65.3,53.2,29.62,SSW,194,11.0,16.0,65,0.00,,,0.00,Wunderground v.1.15,2013-04-24 22:21:00,
2013-04-24 18:26:00,64.2,53.8,29.61,West,265,8.0,16.0,69,0.00,,,0.00,Wunderground v.1.15,2013-04-24 22:26:00,
2013-04-24 18:31:00,63.4,54.2,29.63,South,170,8.0,14.0,72,0.00,,,0.01,Wunderground v.1.15,2013-04-24 22:31:00,
2013-04-24 18:37:00,62.7,54.3,29.64,East,89,8.0,14.0,74,0.00,,,0.01,Wunderground v.1.15,2013-04-24 22:37:00,
2013-04-24 18:42:00,62.2,54.9,29.63,NE,47,9.0,12.0,77,0.00,,,0.01,Wunderground v.1.15,2013-04-24 22:42:00,
2013-04-24 18:48:00,61.8,54.9,29.64,SW,236,9.0,17.0,78,0.00,,,0.01,Wunderground v.1.15,2013-04-24 22:48:00,
2013-04-24 18:54:00,61.7,54.8,29.63,ESE,103,8.0,10.0,78,0.00,,,0.02,Wunderground v.1.15,2013-04-24 22:54:00,
2013-04-24 18:59:00,61.8,54.5,29.62,ENE,77,8.0,10.0,77,0.00,,,0.02,Wunderground v.1.15,2013-04-24 22:59:00,
2013-04-24 19:04:00,62.4,54.0,29.64,SE,134,9.0,16.0,74,0.00,,,0.02,Wunderground v.1.15,2013-04-24 23:04:00,
2013-04-24 19:09:00,62.8,54.4,29.63,SSW,208,8.0,16.0,74,0.00,,,0.02,Wunderground v.1.15,2013-04-24 23:09:00,
2013-04-24 19:15:00,62.8,54.4,29.63,ESE,122,7.0,10.0,74,0.00,,,0.02,Wunderground v.1.15,2013-04-24 23:15:00,
2013-04-24 19:20:00,62.5,54.5,29.63,SSE,161,6.0,12.0,75,0.00,,,0.02,Wunderground v.1.15,2013-04-24 23:20:00,
2013-04-24 19:26:00,62.4,54.4,29.63,South,183,6.0,8.0,75,0.00,,,0.02,Wunderground v.1.15,2013-04-24 23:26:00,
2013-04-24 19:31:00,62.4,54.4,29.63,ESE,120,6.0,8.0,75,0.00,,,0.02,Wunderground v.1.15,2013-04-24 23:31:00,
2013-04-24 19:36:00,62.5,54.5,29.62,SE,129,6.0,10.0,75,0.00,,,0.02,Wunderground v.1.15,2013-04-24 23:36:00,
2013-04-24 19:41:00,62.6,54.2,29.62,East,86,6.0,6.0,74,0.00,,,0.02,Wunderground v.1.15,2013-04-24 23:41:00,
2013-04-24 19:47:00,62.8,54.0,29.61,SE,133,6.0,11.0,73,0.00,,,0.02,Wunderground v.1.15,2013-04-24 23:47:00,
2013-04-24 19:52:00,63.0,54.2,29.61,SE,138,6.0,7.0,73,0.00,,,0.02,Wunderground v.1.15,2013-04-24 23:52:00,
2013-04-24 19:58:00,63.2,54.0,29.60,South,186,7.0,11.0,72,0.00,,,0.02,Wunderground v.1.15,2013-04-24 23:58:00,
2013-04-24 20:04:00,63.3,54.1,29.61,SSE,150,6.0,14.0,72,0.00,,,0.02,Wunderground v.1.15,2013-04-25 00:04:00,
2013-04-24 20:10:00,63.4,53.8,29.61,WSW,243,6.0,6.0,71,0.00,,,0.02,Wunderground v.1.15,2013-04-25 00:10:00,
2013-04-24 20:16:00,63.5,53.9,29.61,ESE,112,6.0,7.0,71,0.00,,,0.02,Wunderground v.1.15,2013-04-25 00:16:00,
2013-04-24 20:22:00,62.9,52.2,29.65,WNW,287,9.0,24.0,68,0.00,,,0.02,Wunderground v.1.15,2013-04-25 00:22:00,
2013-04-24 20:27:00,58.4,49.4,29.66,WNW,293,18.0,29.0,72,0.00,,,0.02,Wunderground v.1.15,2013-04-25 00:27:00,
2013-04-24 20:32:00,56.0,48.5,29.67,WNW,297,27.0,31.0,76,0.00,,,0.02,Wunderground v.1.15,2013-04-25 00:32:00,
2013-04-24 20:38:00,54.5,48.5,29.69,WNW,293,25.0,31.0,80,0.00,,,0.03,Wunderground v.1.15,2013-04-25 00:38:00,
2013-04-24 20:43:00,51.8,46.8,29.69,WNW,284,19.0,22.0,83,0.00,,,0.03,Wunderground v.1.15,2013-04-25 00:43:00,
2013-04-24 20:49:00,50.2,46.5,29.70,WNW,284,20.0,25.0,87,0.19,,,0.05,Wunderground v.1.15,2013-04-25 00:49:00,
2013-04-24 20:54:00,49.5,46.4,29.71,WNW,289,20.0,21.0,89,0.11,,,0.05,Wunderground v.1.15,2013-04-25 00:54:00,
2013-04-24 21:00:00,49.3,46.8,29.72,WNW,287,14.0,14.0,91,0.06,,,0.06,Wunderground v.1.15,2013-04-25 01:00:00,
2013-04-24 21:06:00,49.1,46.3,29.74,West,262,11.0,16.0,90,0.06,,,0.06,Wunderground v.1.15,2013-04-25 01:06:00,
2013-04-24 21:11:00,48.9,46.1,29.74,WNW,294,14.0,16.0,90,0.05,,,0.06,Wunderground v.1.15,2013-04-25 01:11:00,
2013-04-24 21:17:00,48.9,46.1,29.75,WSW,243,14.0,17.0,90,0.00,,,0.06,Wunderground v.1.15,2013-04-25 01:17:00,
2013-04-24 21:22:00,48.4,45.3,29.75,WNW,284,13.0,20.0,89,0.00,,,0.06,Wunderground v.1.15,2013-04-25 01:22:00,
2013-04-24 21:28:00,47.7,44.3,29.76,WNW,293,15.0,20.0,88,0.00,,,0.06,Wunderground v.1.15,2013-04-25 01:28:00,
2013-04-24 21:33:00,47.4,44.0,29.77,WNW,283,15.0,22.0,88,0.00,,,0.06,Wunderground v.1.15,2013-04-25 01:33:00,
2013-04-24 21:38:00,46.9,43.2,29.78,WNW,291,16.0,24.0,87,0.00,,,0.06,Wunderground v.1.15,2013-04-25 01:38:00,
2013-04-24 21:44:00,46.4,43.0,29.79,SW,225,16.0,20.0,88,0.00,,,0.06,Wunderground v.1.15,2013-04-25 01:44:00,
2013-04-24 21:49:00,46.0,42.9,29.79,WNW,295,15.0,20.0,89,0.00,,,0.06,Wunderground v.1.15,2013-04-25 01:49:00,
2013-04-24 21:54:00,45.6,42.8,29.79,WNW,285,15.0,20.0,90,0.00,,,0.06,Wunderground v.1.15,2013-04-25 01:54:00,
2013-04-24 22:00:00,45.4,42.6,29.80,WSW,253,13.0,14.0,90,0.00,,,0.07,Wunderground v.1.15,2013-04-25 02:00:00,
2013-04-24 22:06:00,45.2,42.4,29.82,West,269,10.0,14.0,90,0.00,,,0.07,Wunderground v.1.15,2013-04-25 02:06:00,
2013-04-24 22:12:00,45.0,42.2,29.82,WNW,298,11.0,20.0,90,0.00,,,0.07,Wunderground v.1.15,2013-04-25 02:12:00,
2013-04-24 22:17:00,44.8,41.8,29.83,WNW,298,13.0,20.0,89,0.00,,,0.07,Wunderground v.1.15,2013-04-25 02:17:00,
2013-04-24 22:22:00,44.7,41.4,29.83,West,266,14.0,15.0,88,0.00,,,0.07,Wunderground v.1.15,2013-04-25 02:22:00,
2013-04-24 22:27:00,44.5,41.2,29.83,WNW,298,16.0,23.0,88,0.00,,,0.07,Wunderground v.1.15,2013-04-25 02:27:00,
2013-04-24 22:33:00,44.4,40.8,29.84,WNW,283,19.0,29.0,87,0.00,,,0.07,Wunderground v.1.15,2013-04-25 02:33:00,
2013-04-24 22:39:00,44.5,40.0,29.84,WNW,282,24.0,33.0,84,0.00,,,0.07,Wunderground v.1.15,2013-04-25 02:39:00,
2013-04-24 22:44:00,44.5,40.0,29.85,WSW,255,23.0,32.0,84,0.00,,,0.07,Wunderground v.1.15,2013-04-25 02:44:00,
2013-04-24 22:49:00,44.4,39.6,29.85,WNW,291,19.0,32.0,83,0.00,,,0.07,Wunderground v.1.15,2013-04-25 02:49:00,
2013-04-24 22:55:00,44.2,39.1,29.86,West,279,18.0,25.0,82,0.00,,,0.07,Wunderground v.1.15,2013-04-25 02:55:00,
2013-04-24 23:00:00,44.0,38.9,29.87,WNW,284,19.0,25.0,82,0.00,,,0.00,Wunderground v.1.15,2013-04-25 03:00:00,
2013-04-24 23:06:00,43.6,37.8,29.87,NW,311,24.0,36.0,80,0.00,,,0.00,Wunderground v.1.15,2013-04-25 03:06:00,
2013-04-24 23:11:00,43.3,37.2,29.88,WNW,295,26.0,36.0,79,0.00,,,0.00,Wunderground v.1.15,2013-04-25 03:11:00,
2013-04-24 23:16:00,43.2,37.4,29.89,WNW,295,24.0,36.0,80,0.00,,,0.00,Wunderground v.1.15,2013-04-25 03:16:00,
2013-04-24 23:22:00,43.1,37.3,29.89,WNW,291,22.0,25.0,80,0.00,,,0.00,Wunderground v.1.15,2013-04-25 03:22:00,
2013-04-24 23:28:00,43.0,37.3,29.90,WNW,294,22.0,27.0,80,0.00,,,0.00,Wunderground v.1.15,2013-04-25 03:28:00,
2013-04-24 23:33:00,42.9,37.2,29.90,West,271,20.0,21.0,80,0.00,,,0.00,Wunderground v.1.15,2013-04-25 03:33:00,
2013-04-24 23:38:00,42.9,37.2,29.91,WNW,285,17.0,24.0,80,0.00,,,0.00,Wunderground v.1.15,2013-04-25 03:38:00,
2013-04-24 23:44:00,42.8,36.1,29.91,West,279,21.0,28.0,77,0.00,,,0.00,Wunderground v.1.15,2013-04-25 03:44:00,
2013-04-24 23:49:00,42.8,36.1,29.92,West,276,24.0,29.0,77,0.00,,,0.00,Wunderground v.1.15,2013-04-25 03:49:00,
2013-04-24 23:54:00,42.7,36.0,29.92,WNW,294,22.0,25.0,77,0.00,,,0.00,Wunderground v.1.15,2013-04-25 03:54:00,